Terminal Aerodrome Forecast
Issued by NWS

Home | Current Version | Previous Version | Text Only | Print | Product List | Glossary On
Versions: 1 2 3 4 5 6 7 8 9 10 11 12 13 14 15
292
FTUS42 TJSJ 290520
TAFJPS
TAF
TJPS 290520Z 2906/3006 08005KT P6SM SCT020
     FM291400 14011KT P6SM VCSH SCT025 BKN050
     FM292300 09008KT P6SM FEW030 SCT060=

USA.gov is the U.S. government's official web portal to all federal, state and local government web resources and services.